Time;durP1;ratioP1;P1;durP2;ratioP2;P2;SDS_P1;SDS_P2;PMS_P1;PMS_P2;Temp;Humidity;BMP_temperature;BMP_pressure;BME280_temperature;BME280_humidity;BME280_pressure;Samples;Min_cycle;Max_cycle;Signal;HPM_P1;HPM_P2
2022/06/08 00:02:14;;;;;;;16.00;13.08;;;;;;;18.36;91.02;100260.05;1699976;82;25784;-81
2022/06/08 00:04:40;;;;;;;15.93;14.23;;;;;;;18.31;91.31;100257.77;1710224;82;25827;-80
2022/06/08 00:07:07;;;;;;;16.20;12.23;;;;;;;18.28;91.32;100256.92;1723692;82;27474;-79
2022/06/08 00:09:34;;;;;;;14.47;12.05;;;;;;;18.28;91.41;100248.23;1687291;82;25930;-80
2022/06/08 00:12:02;;;;;;;12.63;9.33;;;;;;;18.23;91.85;100241.91;1688648;82;26509;-80
2022/06/08 00:14:29;;;;;;;10.43;8.85;;;;;;;18.12;92.09;100238.20;1676188;83;25808;-80
2022/06/08 00:16:55;;;;;;;9.45;6.40;;;;;;;17.99;91.99;100238.50;1698488;82;26171;-81
2022/06/08 00:19:22;;;;;;;6.65;6.05;;;;;;;17.89;92.02;100236.97;1725939;82;27459;-80
2022/06/08 00:21:48;;;;;;;8.75;6.20;;;;;;;17.82;91.71;100240.87;1712077;82;26380;-81
2022/06/08 00:24:14;;;;;;;8.45;7.15;;;;;;;17.79;92.03;100240.03;1691704;83;25778;-81
2022/06/08 00:26:40;;;;;;;9.35;6.00;;;;;;;17.75;91.95;100234.81;1715416;82;25970;-81
2022/06/08 00:29:07;;;;;;;7.47;5.78;;;;;;;17.71;92.27;100235.80;1676837;83;25445;-79
2022/06/08 00:31:35;;;;;;;7.67;5.83;;;;;;;17.69;92.04;100236.05;1706411;82;27477;-80
2022/06/08 00:34:02;;;;;;;6.17;5.58;;;;;;;17.66;92.26;100241.14;1726895;82;25911;-80
2022/06/08 00:36:30;;;;;;;9.95;5.72;;;;;;;17.62;92.32;100239.98;1716137;82;25301;-81
2022/06/08 00:38:56;;;;;;;7.53;5.60;;;;;;;17.59;92.39;100233.68;1709417;82;25779;-80
2022/06/08 00:41:47;;;;;;;8.23;5.75;;;;;;;17.58;92.71;100229.31;1717950;82;25847;-80
2022/06/08 00:44:33;;;;;;;6.80;6.15;;;;;;;17.53;92.59;100231.42;1705674;82;27522;-81
2022/06/08 00:47:03;;;;;;;7.30;6.28;;;;;;;17.51;93.05;100235.42;1666882;83;26482;-80
2022/06/08 00:49:50;;;;;;;7.30;6.50;;;;;;;17.48;92.90;100230.44;1709523;82;25774;-80
2022/06/08 00:52:17;;;;;;;7.90;6.12;;;;;;;17.51;93.23;100231.36;1680510;83;25771;-80
2022/06/08 00:54:51;;;;;;;10.40;6.50;;;;;;;17.49;93.17;100227.48;1719612;81;25782;-80
2022/06/08 00:57:26;;;;;;;6.90;6.03;;;;;;;17.50;93.12;100225.12;1731223;82;27455;-80
2022/06/08 01:00:00;;;;;;;7.45;6.40;;;;;;;17.51;93.23;100221.88;1687233;82;26316;-79
2022/06/08 01:02:27;;;;;;;8.45;7.08;;;;;;;17.52;93.21;100222.98;1713850;82;26463;-80
2022/06/08 01:05:23;;;;;;;7.58;6.42;;;;;;;17.52;93.13;100216.22;1731165;82;25821;-80
2022/06/08 01:07:53;;;;;;;8.23;7.10;;;;;;;17.53;93.20;100215.17;1711986;82;25757;-80
2022/06/08 01:10:25;;;;;;;6.60;5.97;;;;;;;17.52;92.99;100215.39;1733955;82;27428;-79
2022/06/08 01:12:53;;;;;;;7.20;6.47;;;;;;;17.55;93.06;100207.63;1736759;82;25839;-79
2022/06/08 01:15:28;;;;;;;7.15;6.47;;;;;;;17.63;93.40;100218.59;1711485;82;25700;-80
2022/06/08 01:17:55;;;;;;;9.85;6.53;;;;;;;17.60;92.91;100219.06;1718040;82;25805;-81
2022/06/08 01:20:22;;;;;;;9.60;6.40;;;;;;;17.61;92.97;100219.36;1738403;82;26543;-80
2022/06/08 01:22:50;;;;;;;8.38;7.25;;;;;;;17.65;92.98;100221.88;1736452;82;27458;-80
2022/06/08 01:25:17;;;;;;;6.12;5.53;;;;;;;17.67;93.00;100212.45;1732478;82;25889;-81
2022/06/08 01:28:06;;;;;;;10.23;6.17;;;;;;;17.68;92.78;100215.98;1696377;82;25422;-79
2022/06/08 01:30:53;;;;;;;9.33;7.12;;;;;;;17.69;92.77;100214.38;1715682;82;25788;-79
2022/06/08 01:33:41;;;;;;;7.72;6.05;;;;;;;17.74;92.79;100210.95;1738310;81;26495;-79
2022/06/08 01:36:40;;;;;;;8.48;6.47;;;;;;;17.78;92.76;100210.75;1688380;82;27472;-80
2022/06/08 01:39:44;;;;;;;7.50;6.17;;;;;;;17.78;92.53;100199.91;1723387;82;25989;-80
2022/06/08 01:42:22;;;;;;;7.10;6.42;;;;;;;17.78;92.54;100212.11;1721317;82;25825;-79
2022/06/08 01:47:50;;;;;;;8.40;7.05;;;;;;;17.82;92.51;100196.17;1712447;82;25805;-81
2022/06/08 01:50:22;;;;;;;9.23;6.00;;;;;;;17.86;92.43;100200.03;1735226;82;28271;-80
2022/06/08 01:52:54;;;;;;;7.17;6.22;;;;;;;17.89;92.47;100196.85;1704559;82;25949;-80
2022/06/08 01:55:35;;;;;;;7.50;6.37;;;;;;;17.88;92.27;100194.67;1724644;82;25875;-80
2022/06/08 01:58:25;;;;;;;7.45;6.25;;;;;;;17.86;92.16;100200.87;1684093;83;26675;-80
2022/06/08 02:01:02;;;;;;;9.30;6.65;;;;;;;17.85;92.10;100200.59;1704076;83;26014;-80
2022/06/08 02:03:40;;;;;;;6.92;6.22;;;;;;;17.85;92.04;100206.02;1701379;82;28381;-80
2022/06/08 02:06:36;;;;;;;6.67;6.05;;;;;;;17.84;91.99;100206.23;1718642;82;25902;-81
2022/06/08 02:09:27;;;;;;;5.62;5.05;;;;;;;17.80;92.21;100209.14;1647305;84;26050;-80
2022/06/08 02:12:01;;;;;;;7.80;5.65;;;;;;;17.77;92.41;100215.06;1702049;82;25810;-80
2022/06/08 02:14:50;;;;;;;6.65;5.87;;;;;;;17.71;92.35;100210.90;1685972;83;25983;-80
2022/06/08 02:17:38;;;;;;;6.75;5.30;;;;;;;17.73;92.48;100214.70;1692918;83;27668;-80
2022/06/08 02:20:16;;;;;;;5.95;5.35;;;;;;;17.73;92.57;100211.47;1732392;82;25956;-81
2022/06/08 02:22:57;;;;;;;5.97;5.37;;;;;;;17.73;92.52;100210.13;1705885;82;25895;-79
2022/06/08 02:25:48;;;;;;;5.78;5.22;;;;;;;17.78;92.76;100201.27;1708622;81;26602;-79
2022/06/08 02:28:29;;;;;;;7.05;5.22;;;;;;;17.75;92.49;100193.61;1721367;82;26258;-79
2022/06/08 02:31:13;;;;;;;6.30;5.80;;;;;;;17.73;92.60;100189.80;1716867;81;27449;-80
2022/06/08 02:36:36;;;;;;;7.20;5.60;;;;;;;17.68;92.76;100197.02;1727253;82;32620;-80
2022/06/08 02:39:13;;;;;;;6.55;5.78;;;;;;;17.67;93.04;100192.66;1713192;82;25770;-80
2022/06/08 02:41:44;;;;;;;7.60;5.53;;;;;;;17.64;92.98;100196.67;1727219;82;25759;-80
2022/06/08 02:44:18;;;;;;;7.05;6.03;;;;;;;17.64;93.16;100199.94;1727696;82;28549;-81
2022/06/08 02:47:05;;;;;;;6.83;5.65;;;;;;;17.60;93.27;100196.04;1727719;82;25658;-80
2022/06/08 02:49:36;;;;;;;6.05;5.45;;;;;;;17.59;93.29;100197.12;1694673;84;26520;-80
2022/06/08 02:52:08;;;;;;;8.00;6.60;;;;;;;17.60;93.56;100191.97;1688524;83;25909;-80
2022/06/08 02:54:34;;;;;;;8.05;6.47;;;;;;;17.59;93.53;100193.88;1663549;83;25773;-82
2022/06/08 02:57:13;;;;;;;6.65;6.05;;;;;;;17.57;93.45;100190.59;1674206;84;27645;-81
2022/06/08 03:00:20;;;;;;;7.70;6.90;;;;;;;17.54;93.56;100187.01;1717158;83;26100;-83
2022/06/08 03:03:03;;;;;;;6.83;6.12;;;;;;;17.52;93.64;100188.30;1728194;82;26319;-82
2022/06/08 03:05:35;;;;;;;8.28;6.60;;;;;;;17.55;93.81;100185.13;1699955;84;25761;-83
2022/06/08 03:08:08;;;;;;;8.65;7.75;;;;;;;17.54;93.89;100176.17;1727954;82;26594;-84
2022/06/08 03:10:40;;;;;;;6.90;6.30;;;;;;;17.51;93.78;100178.55;1714154;82;27466;-83
2022/06/08 03:13:18;;;;;;;8.95;6.53;;;;;;;17.48;93.98;100177.11;1689092;83;26735;-82
2022/06/08 03:15:56;;;;;;;6.60;6.00;;;;;;;17.39;94.13;100171.78;1724775;82;25781;-82
2022/06/08 03:18:22;;;;;;;7.40;6.70;;;;;;;17.35;94.46;100180.11;1716347;81;26279;-82
2022/06/08 03:20:52;;;;;;;7.90;5.97;;;;;;;17.31;94.76;100176.76;1724606;82;25756;-82
2022/06/08 03:23:21;;;;;;;7.40;6.45;;;;;;;17.28;95.02;100180.77;1710290;82;33233;-83
2022/06/08 03:25:48;;;;;;;7.50;5.78;;;;;;;17.26;95.32;100170.71;1670075;83;26005;-81
2022/06/08 03:28:16;;;;;;;6.50;5.87;;;;;;;17.28;95.29;100186.73;1714177;82;25265;-84
2022/06/08 03:30:45;;;;;;;6.15;5.50;;;;;;;17.31;95.51;100191.66;1677502;83;26693;-83
2022/06/08 03:33:12;;;;;;;5.58;4.75;;;;;;;17.29;95.64;100183.78;1716273;82;25945;-81
2022/06/08 03:35:39;;;;;;;5.28;4.85;;;;;;;17.27;95.58;100192.67;1703298;82;28257;-83
2022/06/08 03:38:10;;;;;;;5.70;5.20;;;;;;;17.26;95.67;100195.08;1726266;82;25923;-82
2022/06/08 03:40:38;;;;;;;5.72;4.40;;;;;;;17.26;95.63;100197.78;1719367;82;25825;-80
2022/06/08 03:43:05;;;;;;;5.97;5.37;;;;;;;17.27;95.83;100202.14;1722351;82;25781;-85
2022/06/08 03:45:37;;;;;;;5.97;4.62;;;;;;;17.28;95.95;100199.72;1715110;81;25871;-83
2022/06/08 03:48:07;;;;;;;5.42;4.92;;;;;;;17.32;96.01;100207.64;1679280;83;27471;-85
2022/06/08 03:50:34;;;;;;;5.62;5.12;;;;;;;17.32;96.05;100202.23;1702378;83;25919;-83
2022/06/08 03:53:05;;;;;;;6.65;4.95;;;;;;;17.29;96.05;100204.61;1726811;81;25815;-82
2022/06/08 03:55:34;;;;;;;5.97;5.15;;;;;;;17.31;96.20;100201.12;1711134;82;26626;-80
2022/06/08 03:58:02;;;;;;;6.85;5.28;;;;;;;17.31;96.38;100195.71;1666732;83;25533;-82
2022/06/08 04:00:31;;;;;;;10.23;4.92;;;;;;;17.25;96.28;100195.33;1702833;82;27487;-82
2022/06/08 04:03:01;;;;;;;5.28;4.78;;;;;;;17.21;96.39;100196.87;1693975;82;26525;-83
2022/06/08 04:05:29;;;;;;;6.22;5.55;;;;;;;17.20;96.42;100193.33;1676417;83;25357;-83
2022/06/08 04:07:55;;;;;;;6.97;5.28;;;;;;;17.22;96.56;100203.39;1712031;82;25853;-83
2022/06/08 04:10:23;;;;;;;7.87;5.12;;;;;;;17.26;96.61;100203.19;1727668;82;25524;-84
2022/06/08 04:12:51;;;;;;;7.30;4.78;;;;;;;17.24;96.64;100203.97;1724013;82;27666;-82
2022/06/08 04:18:03;;;;;;;7.33;6.62;;;;;;;17.25;96.37;100203.44;1702523;82;25367;-82
2022/06/08 04:20:31;;;;;;;8.88;6.50;;;;;;;17.29;97.63;100205.44;1707032;82;26552;-83
2022/06/08 04:22:57;;;;;;;8.98;6.80;;;;;;;17.30;96.92;100203.00;1724454;82;26145;-81
2022/06/08 04:25:25;;;;;;;9.73;7.37;;;;;;;17.32;96.73;100204.14;1709871;82;27517;-82
2022/06/08 04:27:52;;;;;;;7.62;6.83;;;;;;;17.33;96.85;100200.35;1708857;82;25416;-83
2022/06/08 04:30:21;;;;;;;8.98;7.92;;;;;;;17.33;96.88;100199.83;1719480;82;25752;-80
2022/06/08 04:32:48;;;;;;;8.90;8.00;;;;;;;17.34;96.99;100200.10;1687964;83;26384;-81
2022/06/08 04:35:17;;;;;;;9.68;8.03;;;;;;;17.37;96.97;100209.64;1718286;81;25824;-82
2022/06/08 04:37:43;;;;;;;10.35;8.13;;;;;;;17.38;96.89;100220.77;1737178;82;27534;-82
2022/06/08 04:40:14;;;;;;;10.00;8.98;;;;;;;17.43;97.09;100218.14;1703483;82;26408;-82
2022/06/08 04:42:42;;;;;;;11.12;8.95;;;;;;;17.48;97.14;100212.31;1690871;83;26047;-82
2022/06/08 04:45:10;;;;;;;11.43;9.28;;;;;;;17.55;97.14;100218.98;1666693;84;25797;-84
2022/06/08 04:47:38;;;;;;;9.95;8.95;;;;;;;17.62;97.15;100224.53;1682766;84;25897;-84
2022/06/08 04:50:07;;;;;;;11.35;9.85;;;;;;;17.67;97.06;100224.64;1725344;81;27476;-83
2022/06/08 04:52:35;;;;;;;11.25;10.08;;;;;;;17.72;96.90;100226.63;1727917;82;26487;-81
2022/06/08 04:55:06;;;;;;;12.28;10.95;;;;;;;17.79;97.03;100225.95;1683842;82;25938;-82
2022/06/08 04:57:36;;;;;;;13.20;11.80;;;;;;;17.84;96.85;100230.09;1713371;81;26180;-82
2022/06/08 05:00:06;;;;;;;14.95;13.38;;;;;;;17.89;97.02;100230.20;1718627;81;25767;-82
2022/06/08 05:02:45;;;;;;;16.70;14.30;;;;;;;17.91;96.84;100222.64;1733462;81;27455;-83
2022/06/08 05:05:28;;;;;;;18.55;15.85;;;;;;;17.94;96.89;100228.12;1717197;81;25921;-83
2022/06/08 05:07:55;;;;;;;18.95;15.88;;;;;;;17.92;96.51;100235.11;1725782;81;25843;-83
2022/06/08 05:10:26;;;;;;;18.48;15.55;;;;;;;17.94;96.71;100237.60;1692610;81;26541;-80
2022/06/08 05:12:55;;;;;;;20.72;16.50;;;;;;;17.99;96.88;100242.57;1728309;81;25346;-83
2022/06/08 05:15:28;;;;;;;22.13;18.07;;;;;;;18.02;97.02;100235.32;1702822;81;27461;-83
2022/06/08 05:17:57;;;;;;;19.60;17.40;;;;;;;18.05;96.86;100234.02;1674519;83;26002;-82
2022/06/08 05:20:25;;;;;;;21.35;17.60;;;;;;;18.07;96.81;100225.11;1716546;82;26638;-82
2022/06/08 05:22:52;;;;;;;22.42;18.05;;;;;;;18.10;97.06;100231.38;1704278;82;25824;-81
2022/06/08 05:25:27;;;;;;;26.97;19.07;;;;;;;18.12;96.93;100226.53;1726437;82;25843;-83
2022/06/08 05:27:54;;;;;;;22.80;19.25;;;;;;;18.14;96.99;100225.75;1708020;82;27476;-85
2022/06/08 05:30:22;;;;;;;22.32;18.80;;;;;;;18.14;96.78;100226.58;1688971;82;25848;-82
2022/06/08 05:32:48;;;;;;;24.80;20.60;;;;;;;18.12;96.74;100227.88;1684155;84;25939;-81
2022/06/08 05:35:15;;;;;;;24.75;21.40;;;;;;;18.13;96.95;100222.77;1725354;82;25824;-83
2022/06/08 05:37:42;;;;;;;27.35;21.68;;;;;;;18.12;96.80;100231.42;1723821;82;25872;-83
2022/06/08 05:40:10;;;;;;;29.27;23.87;;;;;;;18.14;96.89;100229.81;1724337;82;27459;-83
2022/06/08 05:42:38;;;;;;;28.98;22.87;;;;;;;18.18;97.06;100229.08;1703635;82;25817;-82
2022/06/08 05:45:09;;;;;;;29.65;24.30;;;;;;;18.18;96.89;100234.51;1664756;82;25886;-83
2022/06/08 05:47:36;;;;;;;29.75;23.67;;;;;;;18.21;97.01;100234.03;1729701;82;26410;-82
2022/06/08 05:50:04;;;;;;;30.12;24.35;;;;;;;18.26;96.90;100227.31;1709342;82;25952;-81
2022/06/08 05:52:32;;;;;;;31.82;25.90;;;;;;;18.27;96.97;100233.05;1722678;82;27459;-82
2022/06/08 05:54:59;;;;;;;31.73;24.12;;;;;;;18.33;97.16;100236.65;1720435;82;25843;-83
2022/06/08 05:57:25;;;;;;;32.30;26.25;;;;;;;18.35;97.28;100229.09;1694232;82;25866;-81
2022/06/08 05:59:52;;;;;;;33.48;25.25;;;;;;;18.35;96.87;100219.59;1695315;82;26699;-83
2022/06/08 06:02:18;;;;;;;28.17;23.57;;;;;;;18.38;96.79;100219.12;1704556;82;25907;-83
2022/06/08 06:04:46;;;;;;;35.40;25.85;;;;;;;18.43;96.77;100224.08;1713148;82;27480;-82
2022/06/08 06:07:13;;;;;;;31.87;25.60;;;;;;;18.50;96.75;100221.79;1700474;82;25945;-85
2022/06/08 06:09:43;;;;;;;29.67;24.43;;;;;;;18.55;96.53;100223.20;1713686;82;25955;-81
2022/06/08 06:12:11;;;;;;;32.40;25.72;;;;;;;18.58;96.49;100222.72;1707150;82;25831;-83
2022/06/08 06:14:37;;;;;;;29.45;24.72;;;;;;;18.61;96.49;100233.06;1698380;82;25832;-84
2022/06/08 06:17:05;;;;;;;29.85;25.02;;;;;;;18.65;96.71;100234.23;1700251;82;27478;-83
2022/06/08 06:19:32;;;;;;;29.77;24.95;;;;;;;18.65;96.36;100225.53;1719328;82;25965;-83
2022/06/08 06:22:15;;;;;;;31.05;25.55;;;;;;;18.62;96.00;100230.13;1722066;82;25907;-82
2022/06/08 06:24:50;;;;;;;31.60;24.87;;;;;;;18.63;96.53;100222.78;1681274;83;26597;-81
2022/06/08 06:27:21;;;;;;;31.05;26.62;;;;;;;18.69;97.20;100229.39;1730011;82;25806;-82
2022/06/08 06:29:56;;;;;;;28.65;24.63;;;;;;;18.71;96.62;100229.96;1707958;82;27531;-82
2022/06/08 06:32:29;;;;;;;33.30;25.40;;;;;;;18.72;96.27;100226.72;1710037;82;25806;-81
2022/06/08 06:34:58;;;;;;;31.40;26.05;;;;;;;18.72;96.14;100228.91;1709318;82;25784;-82
2022/06/08 06:37:28;;;;;;;35.00;27.35;;;;;;;18.73;96.09;100231.92;1734954;82;26563;-82
2022/06/08 06:39:54;;;;;;;30.90;27.32;;;;;;;18.76;96.17;100234.65;1735077;82;25859;-82
2022/06/08 06:42:31;;;;;;;34.38;29.77;;;;;;;18.78;96.38;100230.63;1716858;82;28124;-82
2022/06/08 06:45:00;;;;;;;33.63;28.55;;;;;;;18.84;96.51;100231.53;1704125;81;25947;-83
2022/06/08 06:47:28;;;;;;;32.70;28.02;;;;;;;18.89;95.97;100239.20;1674020;84;25778;-82
2022/06/08 06:49:56;;;;;;;37.70;29.67;;;;;;;18.95;96.13;100238.20;1713599;82;25804;-81
2022/06/08 06:52:24;;;;;;;34.23;29.98;;;;;;;19.00;96.36;100244.23;1701336;82;25812;-82
2022/06/08 06:54:52;;;;;;;34.05;28.70;;;;;;;19.02;95.47;100248.88;1719315;82;27622;-83
2022/06/08 06:57:19;;;;;;;35.80;29.70;;;;;;;19.04;95.56;100242.13;1694654;82;26009;-82
2022/06/08 06:59:46;;;;;;;35.05;30.62;;;;;;;19.10;95.62;100237.05;1714784;82;26064;-81
2022/06/08 07:02:17;;;;;;;31.90;28.38;;;;;;;19.18;95.22;100239.33;1698682;82;25777;-83
2022/06/08 07:04:44;;;;;;;;;;;;;;;19.20;94.97;100229.03;1717291;82;26164;-82
2022/06/08 07:07:11;;;;;;;32.65;26.50;;;;;;;19.23;95.43;100238.05;1702505;82;27427;-84
2022/06/08 07:09:40;;;;;;;33.55;27.17;;;;;;;19.26;95.49;100239.45;1712070;82;25779;-83
2022/06/08 07:12:10;;;;;;;31.85;27.27;;;;;;;19.34;94.95;100235.45;1729760;82;26393;-83
2022/06/08 07:14:39;;;;;;;30.10;25.88;;;;;;;19.36;94.30;100232.80;1695592;82;25852;-82
2022/06/08 07:17:07;;;;;;;30.55;25.62;;;;;;;19.44;94.06;100239.70;1683390;83;26454;-81
2022/06/08 07:19:36;;;;;;;26.15;22.17;;;;;;;19.51;94.30;100232.16;1739563;82;28340;-82
2022/06/08 07:22:04;;;;;;;26.60;19.92;;;;;;;19.60;93.41;100240.98;1702888;82;26463;-83
2022/06/08 07:24:33;;;;;;;24.75;20.80;;;;;;;19.66;92.10;100238.61;1668575;83;25899;-82
2022/06/08 07:27:02;;;;;;;22.90;20.30;;;;;;;19.68;91.78;100239.17;1700438;82;25930;-81
2022/06/08 07:29:29;;;;;;;24.12;19.27;;;;;;;19.74;92.18;100240.03;1722137;82;26546;-84
2022/06/08 07:31:56;;;;;;;22.85;19.00;;;;;;;19.77;91.74;100243.61;1727028;82;28213;-83
2022/06/08 07:34:22;;;;;;;16.05;14.03;;;;;;;19.81;91.05;100239.30;1705121;82;25897;-82
2022/06/08 07:36:49;;;;;;;18.07;15.72;;;;;;;19.86;90.74;100238.84;1720035;82;25720;-83
2022/06/08 07:39:17;;;;;;;17.15;15.18;;;;;;;19.93;90.32;100243.52;1725892;82;26170;-84
2022/06/08 07:41:46;;;;;;;16.10;14.13;;;;;;;19.96;90.60;100241.66;1725669;82;25752;-83
2022/06/08 07:44:14;;;;;;;16.02;13.48;;;;;;;20.00;90.42;100244.14;1724232;82;28258;-82
2022/06/08 07:46:41;;;;;;;17.85;14.35;;;;;;;20.05;90.09;100246.63;1726322;82;25804;-82
2022/06/08 07:51:57;;;;;;;14.47;13.00;;;;;;;20.11;89.49;100231.99;1682204;84;26116;-82
2022/06/08 07:54:27;;;;;;;14.60;13.10;;;;;;;20.16;88.30;100238.31;1696589;82;26553;-83
2022/06/08 07:56:54;;;;;;;15.80;13.72;;;;;;;20.20;88.53;100235.39;1695461;83;27468;-82
2022/06/08 07:59:24;;;;;;;14.38;12.88;;;;;;;20.25;88.45;100231.34;1697264;83;26031;-84
2022/06/08 08:01:52;;;;;;;12.43;11.22;;;;;;;20.31;87.89;100224.05;1703300;82;25815;-82
2022/06/08 08:04:19;;;;;;;13.28;11.88;;;;;;;20.36;86.78;100220.03;1724413;82;26553;-85
2022/06/08 08:06:45;;;;;;;13.40;11.63;;;;;;;20.38;86.43;100224.67;1710891;82;25793;-80
2022/06/08 08:09:17;;;;;;;12.90;11.55;;;;;;;20.45;86.80;100225.25;1706462;82;27643;-83
2022/06/08 08:11:42;;;;;;;14.25;12.40;;;;;;;20.52;86.74;100234.02;1729465;82;26251;-84
2022/06/08 08:14:08;;;;;;;18.60;14.10;;;;;;;20.58;86.43;100229.72;1697492;82;25834;-83
2022/06/08 08:16:35;;;;;;;13.05;11.43;;;;;;;20.60;85.99;100220.75;1719723;82;25767;-82
2022/06/08 08:19:01;;;;;;;11.30;10.10;;;;;;;20.65;85.76;100229.50;1708831;82;25853;-83
2022/06/08 08:21:28;;;;;;;10.25;9.25;;;;;;;20.68;84.79;100231.67;1721632;82;28280;-83
2022/06/08 08:23:54;;;;;;;10.35;9.35;;;;;;;20.63;84.36;100231.13;1712008;82;25838;-83
2022/06/08 08:26:20;;;;;;;10.72;9.63;;;;;;;20.70;84.75;100242.59;1667247;83;25798;-82
2022/06/08 08:28:47;;;;;;;10.20;9.18;;;;;;;20.72;84.33;100244.50;1688598;82;25908;-83
2022/06/08 08:31:13;;;;;;;9.50;8.60;;;;;;;20.71;83.70;100232.00;1710424;83;26342;-84
2022/06/08 08:33:39;;;;;;;9.08;8.13;;;;;;;20.69;83.19;100236.88;1728455;82;27444;-83
2022/06/08 08:36:06;;;;;;;10.05;9.13;;;;;;;20.64;82.45;100237.37;1723515;82;25950;-80
2022/06/08 08:38:32;;;;;;;9.75;8.78;;;;;;;20.61;82.82;100243.35;1713253;82;26026;-81
2022/06/08 08:41:01;;;;;;;9.98;9.05;;;;;;;20.60;82.32;100238.97;1674573;83;26551;-83
2022/06/08 08:43:35;;;;;;;10.35;9.20;;;;;;;20.61;83.37;100238.73;1680116;82;25938;-81
2022/06/08 08:46:22;;;;;;;10.38;9.43;;;;;;;20.65;83.45;100245.83;1703501;82;27482;-83
2022/06/08 08:49:06;;;;;;;11.12;10.13;;;;;;;20.63;83.00;100237.94;1720874;82;26293;-81
2022/06/08 08:51:43;;;;;;;11.03;10.00;;;;;;;20.64;83.78;100240.92;1679292;83;25765;-83
2022/06/08 08:54:34;;;;;;;11.28;10.18;;;;;;;20.64;83.18;100240.92;1716486;82;25867;-82
2022/06/08 08:57:15;;;;;;;11.53;10.48;;;;;;;20.63;82.86;100239.30;1712060;82;25312;-82
2022/06/08 08:59:45;;;;;;;13.43;12.18;;;;;;;20.57;83.09;100236.23;1680351;82;27540;-81
2022/06/08 09:02:15;;;;;;;;;;;;;;;20.56;83.64;100237.33;1718836;82;25623;-83
2022/06/08 09:04:47;;;;;;;12.07;10.53;;;;;;;20.57;83.48;100236.23;1700221;82;25804;-83
2022/06/08 09:07:19;;;;;;;11.85;10.65;;;;;;;20.62;83.77;100240.89;1711285;82;25852;-83
2022/06/08 09:09:46;;;;;;;10.53;9.50;;;;;;;20.64;83.12;100237.37;1673435;84;25925;-82
2022/06/08 09:12:19;;;;;;;11.05;9.98;;;;;;;20.66;83.05;100241.47;1710264;82;27498;-81
2022/06/08 09:14:50;;;;;;;9.03;8.23;;;;;;;20.69;83.16;100244.22;1722271;82;25825;-82
2022/06/08 09:17:22;;;;;;;10.75;8.80;;;;;;;20.74;82.98;100249.14;1722292;82;25322;-82
2022/06/08 09:19:51;;;;;;;9.20;8.40;;;;;;;20.79;82.87;100248.37;1698232;83;25769;-82
2022/06/08 09:22:28;;;;;;;10.35;8.68;;;;;;;20.84;81.65;100240.78;1700162;83;25793;-81
2022/06/08 09:25:03;;;;;;;9.40;8.40;;;;;;;20.86;81.79;100236.72;1691172;83;27477;-83
2022/06/08 09:27:38;;;;;;;7.97;7.20;;;;;;;20.93;81.67;100239.21;1693118;83;25754;-83
2022/06/08 09:30:20;;;;;;;8.15;7.33;;;;;;;20.98;80.96;100240.05;1660479;84;25396;-83
2022/06/08 09:32:53;;;;;;;8.05;7.05;;;;;;;21.01;80.45;100237.34;1697311;83;25955;-82
2022/06/08 09:35:28;;;;;;;8.03;7.12;;;;;;;21.08;80.86;100247.50;1705741;83;25951;-80
2022/06/08 09:38:02;;;;;;;8.08;7.37;;;;;;;21.16;80.59;100248.36;1720135;82;28093;-81
2022/06/08 09:40:57;;;;;;;8.83;6.70;;;;;;;21.26;80.60;100241.05;1696193;82;25336;-83
2022/06/08 09:43:46;;;;;;;9.25;6.60;;;;;;;21.47;80.75;100240.59;1691169;82;25831;-82
2022/06/08 09:52:47;;;;;;;5.97;5.47;;;;;;;22.00;78.83;100233.98;1672497;83;27453;-80
2022/06/08 09:55:35;;;;;;;9.10;5.08;;;;;;;22.13;78.56;100224.70;1712302;82;26160;-83
2022/06/08 09:58:27;;;;;;;6.40;5.70;;;;;;;22.34;78.31;100226.09;1730709;81;25879;-82
2022/06/08 10:01:08;;;;;;;5.33;4.67;;;;;;;22.44;77.55;100222.82;1733424;82;25770;-82
2022/06/08 10:03:55;;;;;;;5.03;4.10;;;;;;;22.56;77.03;100222.55;1719739;83;25820;-81
2022/06/08 10:06:36;;;;;;;5.33;3.98;;;;;;;22.61;75.75;100224.75;1720137;83;28408;-82
2022/06/08 10:09:35;;;;;;;;;;;;;;;22.66;74.85;100225.30;1730573;82;26672;-82
2022/06/08 10:12:22;;;;;;;3.40;3.20;;;;;;;22.62;74.43;100225.03;1733576;82;25792;-82
2022/06/08 10:15:13;;;;;;;4.22;3.83;;;;;;;22.65;74.51;100227.73;1658069;84;26524;-82
2022/06/08 10:17:47;;;;;;;4.70;4.23;;;;;;;22.72;73.53;100219.55;1700668;84;25494;-80
2022/06/08 10:20:22;;;;;;;3.77;3.47;;;;;;;22.76;73.99;100220.64;1672266;85;28678;-82
2022/06/08 10:22:54;;;;;;;3.75;3.33;;;;;;;22.80;73.97;100216.80;1727767;82;25940;-81
2022/06/08 10:25:35;;;;;;;4.00;3.70;;;;;;;22.82;73.21;100212.70;1728762;82;25389;-81
2022/06/08 10:28:05;;;;;;;4.83;4.42;;;;;;;22.86;72.81;100219.24;1726759;82;25808;-82
2022/06/08 10:30:41;;;;;;;;;;;;;;;22.87;73.24;100217.34;1720842;82;25815;-81
2022/06/08 10:33:18;;;;;;;3.77;2.98;;;;;;;22.87;72.19;100209.14;1717883;82;27463;-82
2022/06/08 10:35:50;;;;;;;3.00;2.77;;;;;;;22.97;73.60;100215.94;1718088;82;25821;-81
2022/06/08 10:38:22;;;;;;;2.67;2.47;;;;;;;23.11;72.88;100212.91;1718203;83;26170;-82
2022/06/08 10:43:58;;;;;;;2.65;2.45;;;;;;;23.24;71.61;100218.33;1717870;83;25363;-82
2022/06/08 10:46:46;;;;;;;2.25;2.10;;;;;;;23.20;70.33;100219.98;1717818;83;28317;-83
2022/06/08 10:49:36;;;;;;;2.47;2.15;;;;;;;23.16;69.40;100218.34;1694494;83;25981;-82
2022/06/08 10:52:20;;;;;;;2.27;2.07;;;;;;;23.14;69.45;100212.91;1710489;82;26011;-82
2022/06/08 10:54:57;;;;;;;3.30;3.00;;;;;;;23.09;69.11;100217.84;1728015;81;26556;-81
2022/06/08 10:57:42;;;;;;;2.58;2.33;;;;;;;23.12;69.38;100219.20;1737429;82;25751;-82
2022/06/08 11:00:29;;;;;;;5.37;2.25;;;;;;;23.09;70.02;100219.75;1713731;82;27504;-81
2022/06/08 11:03:03;;;;;;;2.47;2.22;;;;;;;23.04;69.57;100220.58;1721267;81;26128;-82
2022/06/08 11:05:47;;;;;;;2.95;2.70;;;;;;;22.91;69.79;100219.78;1733697;82;25316;-83
2022/06/08 11:08:23;;;;;;;3.10;2.80;;;;;;;22.84;69.88;100220.07;1722157;81;26705;-83
2022/06/08 11:10:55;;;;;;;4.15;2.80;;;;;;;22.77;70.51;100225.56;1695184;83;25702;-83
2022/06/08 11:13:27;;;;;;;4.78;2.72;;;;;;;22.68;69.98;100223.11;1710455;82;28306;-82
2022/06/08 11:16:26;;;;;;;3.08;2.77;;;;;;;22.60;70.69;100228.59;1674764;83;25777;-84
2022/06/08 11:19:01;;;;;;;4.70;2.50;;;;;;;22.56;71.79;100228.80;1687189;83;25757;-81
2022/06/08 11:21:52;;;;;;;3.50;2.70;;;;;;;22.53;71.62;100229.38;1684713;83;26760;-83
2022/06/08 11:24:25;;;;;;;;;;;;;;;22.51;72.03;100224.73;1698677;82;25765;-83
2022/06/08 11:27:21;;;;;;;5.37;2.90;;;;;;;22.48;72.72;100226.63;1716844;82;28333;-83
2022/06/08 11:29:56;;;;;;;5.72;2.60;;;;;;;22.46;73.01;100227.45;1718309;82;26101;-81
2022/06/08 11:32:34;;;;;;;3.83;2.75;;;;;;;22.42;73.39;100232.37;1720708;82;26547;-82
2022/06/08 11:35:27;;;;;;;4.72;3.12;;;;;;;22.39;73.15;100222.81;1704994;82;26767;-83
2022/06/08 11:38:17;;;;;;;3.58;2.83;;;;;;;22.40;73.30;100229.92;1724259;82;25848;-82
2022/06/08 11:40:46;;;;;;;3.02;2.33;;;;;;;22.37;73.18;100220.90;1699459;82;28274;-82
2022/06/08 11:43:20;;;;;;;2.15;2.05;;;;;;;22.34;73.39;100222.83;1688820;82;25946;-82
2022/06/08 11:45:54;;;;;;;2.42;2.22;;;;;;;22.36;73.73;100223.37;1708942;82;25848;-82
2022/06/08 11:48:30;;;;;;;3.62;2.33;;;;;;;22.35;73.90;100226.38;1718491;82;26137;-82
2022/06/08 11:51:01;;;;;;;3.25;2.52;;;;;;;22.36;74.18;100222.01;1707688;82;25700;-83
2022/06/08 11:53:36;;;;;;;3.52;2.33;;;;;;;22.38;73.98;100209.45;1713567;82;27474;-81
2022/06/08 11:56:29;;;;;;;3.05;2.75;;;;;;;22.34;73.77;100211.09;1690406;83;25900;-83
2022/06/08 11:58:59;;;;;;;3.12;2.87;;;;;;;22.30;73.79;100211.36;1707294;82;25991;-81
2022/06/08 12:01:31;;;;;;;3.22;2.92;;;;;;;22.31;74.49;100215.71;1706013;82;25839;-83
2022/06/08 12:04:08;;;;;;;3.75;3.27;;;;;;;22.26;74.27;100205.07;1692665;82;25914;-81
2022/06/08 12:06:40;;;;;;;4.28;3.87;;;;;;;22.25;75.28;100199.89;1702448;82;27448;-84
2022/06/08 12:09:21;;;;;;;4.10;3.08;;;;;;;22.23;75.48;100203.45;1676804;83;25965;-83